RJTE(METAR)
05/28 02:00
METAR RJTE 271700Z 22005KT 180V240 9999 FEW015 BKN050 21/18 Q1012
RMK 1CU015 7SC050 A2990=
戻る
トップページへ戻る
IMOC Co,.Ltd.